Accueil
METAR-TAF:

METAR-TAF

Aéroports :

Aéroport de Parme

Parme, Italie

latitude: 44-49-17N, longitude: 010-17-41E, altitude: 50 m

Observation

Le bulletin a été fait il y a 1 heure et 15 minutes, à 07:50 UTC
Vent 10 kt de est
Température 4°C
Humidité 81%
Pression 1034 hPa
Visibilité: 7000 m

METAR: LIMP 230750Z 10010KT 7000 NSC 04/01 Q1034

Heure: 10:05 (09:05 UTC)

Prévision

Le bulletin a été fait il y a 4 heures et 5 minutes, à 05:00 UTC
Prévision valable du 23 à 06 UTC au 24 à 06 UTC
Vent 10 kt de est/sud-est
Visibilité 10 km ou plus
pas de nuages en-dessous de 1500 mètres et pas de cumulonimbus.

TAF: LIMP 230500Z 2306/2406 11010KT CAVOK

Observations et prévisions météorologiques de plus de 4000 aéroports (messages METAR et TAF).

Les stations disponibles sont représentées par des disques jaunes et rouges sur la carte.

Passer la souris dessus pour voir le nom de la station.

Cliquer dessus pour voir les observations et prévisions météorologiques.

Pour changer de carte: cliquez sur les boutons verts avec une croix noire pour zoomer, sur le bouton vert avec un tiret pour effectuer un zoom arrière, ou sur les flèches vertes pour les cartes adjacentes.


METAR-TAF: